KGTU

Georgetown Municipal Airport

Georgetown, Texas, USA
METAR KGTU 220956Z AUTO 00000KT 8SM CLR 20/19 A2999 RMK AO2 SLP149 T02000194
Observed Flight Rules
May-22 @ 09:56 UTC (17 minutes ago) Visual Flight Rules
Visibility Clouds
8 miles
  • Clear skies
Temperatures Readings
Current 20°C / 68°F
Dewpoint 19°C / 66°F
Humidity 94%
Altimeter 29.99" Hg
Pressure 1014.9 hPa
Elevation 240
METAR KGTU 220956Z AUTO 00000KT 8SM CLR 20/19 A2999 RMK AO2 SLP149 T02000194
Observed Flight Rules
May-22 @ 09:56 UTC
(17 minutes ago)
VFR
Clouds
  • Clear skies
Temperature Dewpoint
20°C / 68°F 19°C / 66°F
Humidity Altimeter Pressure
94% 29.99" Hg 1014.9 hPa